Time;durP1;ratioP1;P1;durP2;ratioP2;P2;SDS_P1;SDS_P2;PMS_P1;PMS_P2;Temp;Humidity;BMP_temperature;BMP_pressure;BME280_temperature;BME280_humidity;BME280_pressure;Samples;Min_cycle;Max_cycle;Signal;HPM_P1;HPM_P2
2024/01/03 00:00:27;;;;;;;5.88;1.27;;;9.00;99.90;;;;;;5118781;28;20046;-83
2024/01/03 00:02:55;;;;;;;9.05;1.17;;;8.50;99.90;;;;;;5143857;28;20043;-83
2024/01/03 00:05:23;;;;;;;6.95;1.20;;;8.50;99.90;;;;;;5129686;28;20047;-83
2024/01/03 00:07:51;;;;;;;6.80;1.30;;;9.20;99.90;;;;;;5129742;28;20428;-83
2024/01/03 00:10:40;;;;;;;7.38;1.00;;;8.50;99.90;;;;;;5114933;28;20494;-83
2024/01/03 00:13:32;;;;;;;4.18;0.90;;;8.40;99.90;;;;;;5136728;28;20044;-83
2024/01/03 00:15:59;;;;;;;4.50;1.15;;;8.30;99.90;;;;;;5123006;28;20493;-83
2024/01/03 00:18:50;;;;;;;7.57;1.17;;;8.30;99.90;;;;;;5138552;28;20040;-83
2024/01/03 00:21:22;;;;;;;8.00;1.38;;;8.30;99.90;;;;;;5126579;28;20044;-83
2024/01/03 00:23:52;;;;;;;6.38;1.10;;;8.30;99.90;;;;;;5119067;28;20032;-83
2024/01/03 00:26:19;;;;;;;3.95;0.95;;;8.30;99.90;;;;;;5146574;28;20036;-83
2024/01/03 00:28:46;;;;;;;4.55;0.93;;;8.70;99.90;;;;;;5114063;28;20405;-84
2024/01/03 00:31:41;;;;;;;8.30;1.35;;;8.30;99.90;;;;;;5109495;28;20040;-83
2024/01/03 00:34:23;;;;;;;7.97;1.20;;;8.30;99.90;;;;;;5124742;28;20035;-83
2024/01/03 00:36:51;;;;;;;6.18;1.17;;;8.30;99.90;;;;;;5116301;28;20040;-83
2024/01/03 00:39:32;;;;;;;7.60;1.10;;;8.30;99.90;;;;;;5129786;28;20075;-83
2024/01/03 00:41:59;;;;;;;6.88;1.33;;;8.30;99.90;;;;;;5113773;28;20540;-83
2024/01/03 00:44:25;;;;;;;4.57;1.10;;;8.20;99.90;;;;;;5129272;28;20039;-83
2024/01/03 00:46:54;;;;;;;8.82;1.20;;;8.20;99.90;;;;;;5126392;28;20040;-83
2024/01/03 00:49:21;;;;;;;6.72;1.10;;;8.30;99.90;;;;;;5129461;28;20043;-82
2024/01/03 00:51:49;;;;;;;8.13;1.50;;;8.50;99.90;;;;;;5128641;28;20035;-83
2024/01/03 00:54:19;;;;;;;7.80;1.00;;;8.10;99.90;;;;;;5132353;28;20036;-83
2024/01/03 00:56:46;;;;;;;4.90;1.10;;;8.10;99.90;;;;;;5127475;28;20044;-83
2024/01/03 00:59:14;;;;;;;3.83;0.80;;;8.10;99.90;;;;;;5126227;28;20035;-83
2024/01/03 01:01:41;;;;;;;3.78;0.80;;;8.20;99.90;;;;;;5127408;28;20078;-83
2024/01/03 01:04:08;;;;;;;8.07;1.20;;;8.20;99.90;;;;;;5129862;28;20054;-83
2024/01/03 01:06:34;;;;;;;5.18;1.02;;;8.80;99.90;;;;;;5129704;28;20048;-83
2024/01/03 01:09:03;;;;;;;6.05;1.42;;;8.00;99.90;;;;;;5113077;28;20035;-83
2024/01/03 01:11:30;;;;;;;5.18;0.93;;;8.00;99.90;;;;;;5121462;28;20028;-83
2024/01/03 01:13:57;;;;;;;7.80;1.42;;;8.10;99.90;;;;;;5119742;28;20039;-83
2024/01/03 01:16:24;;;;;;;7.53;1.42;;;8.00;99.90;;;;;;5121726;28;20146;-83
2024/01/03 01:18:50;;;;;;;8.50;1.35;;;8.60;99.90;;;;;;5132949;28;20046;-83
2024/01/03 01:21:17;;;;;;;4.63;0.98;;;8.00;99.90;;;;;;5133142;28;20042;-83
2024/01/03 01:23:44;;;;;;;5.72;1.08;;;8.00;99.90;;;;;;5124713;28;20031;-83
2024/01/03 01:26:10;;;;;;;10.75;1.42;;;7.90;99.90;;;;;;5116285;28;20032;-83
2024/01/03 01:28:37;;;;;;;9.20;1.33;;;8.40;99.90;;;;;;5130423;28;20036;-83
2024/01/03 01:31:04;;;;;;;8.05;1.55;;;8.00;99.90;;;;;;5132211;28;20031;-83
2024/01/03 01:33:30;;;;;;;6.90;1.20;;;7.80;99.90;;;;;;5127595;28;20061;-83
2024/01/03 01:35:57;;;;;;;6.32;1.25;;;8.00;99.90;;;;;;5122338;28;20040;-82
2024/01/03 01:38:23;;;;;;;5.68;1.08;;;8.20;99.90;;;;;;5119550;28;20035;-83
2024/01/03 01:40:50;;;;;;;8.43;1.30;;;7.90;99.90;;;;;;5122332;28;20040;-83
2024/01/03 01:43:17;;;;;;;4.68;1.10;;;8.10;99.90;;;;;;5137760;28;20063;-83
2024/01/03 01:45:47;;;;;;;5.22;1.10;;;7.80;99.90;;;;;;5132566;28;20096;-83
2024/01/03 01:48:15;;;;;;;8.10;1.33;;;7.90;99.90;;;;;;5127564;28;20032;-83
2024/01/03 01:50:42;;;;;;;5.07;1.20;;;7.90;99.90;;;;;;5112325;28;20484;-83
2024/01/03 01:53:10;;;;;;;9.68;1.45;;;8.30;99.90;;;;;;5127431;28;20039;-83
2024/01/03 01:55:38;;;;;;;9.27;1.23;;;8.30;99.90;;;;;;5122522;28;20496;-83
2024/01/03 01:58:07;;;;;;;8.27;1.00;;;7.80;99.90;;;;;;5123288;28;20039;-83
2024/01/03 02:00:35;;;;;;;7.20;1.30;;;7.90;99.90;;;;;;5114957;28;20500;-83
2024/01/03 02:03:02;;;;;;;6.80;1.50;;;8.70;99.90;;;;;;5125115;28;20129;-83
2024/01/03 02:05:29;;;;;;;3.95;1.23;;;7.90;99.90;;;;;;5115192;28;20097;-84
2024/01/03 02:07:58;;;;;;;4.72;1.13;;;7.90;99.90;;;;;;5131028;28;20136;-84
2024/01/03 02:10:24;;;;;;;7.70;1.20;;;7.90;99.90;;;;;;5119503;28;20161;-83
2024/01/03 02:12:51;;;;;;;8.52;1.38;;;8.00;99.90;;;;;;5130793;28;20096;-83
2024/01/03 02:15:18;;;;;;;9.13;1.38;;;7.90;99.90;;;;;;5111546;28;20035;-83
2024/01/03 02:17:46;;;;;;;5.82;1.05;;;8.00;99.90;;;;;;5127806;28;20036;-83
2024/01/03 02:20:13;;;;;;;4.95;1.20;;;8.20;99.90;;;;;;5111984;28;20040;-83
2024/01/03 02:22:40;;;;;;;10.45;1.98;;;8.60;99.90;;;;;;5125025;28;20043;-83
2024/01/03 02:25:10;;;;;;;7.20;1.10;;;8.00;99.90;;;;;;5121900;28;20028;-83
2024/01/03 02:27:37;;;;;;;7.30;1.30;;;8.00;99.90;;;;;;5145617;28;20456;-84
2024/01/03 02:30:04;;;;;;;6.93;1.15;;;8.10;99.90;;;;;;5147132;28;20071;-83
2024/01/03 02:32:31;;;;;;;4.30;1.27;;;8.00;99.90;;;;;;5119713;28;20504;-83
2024/01/03 02:34:58;;;;;;;10.77;1.50;;;8.10;99.90;;;;;;5119724;28;20073;-83
2024/01/03 02:37:25;;;;;;;4.47;0.90;;;8.20;99.90;;;;;;5111220;28;20543;-84
2024/01/03 02:39:52;;;;;;;9.27;1.58;;;8.10;99.90;;;;;;5113762;28;20093;-83
2024/01/03 02:42:18;;;;;;;8.95;1.50;;;8.10;99.90;;;;;;5121932;28;20040;-83
2024/01/03 02:44:45;;;;;;;7.35;1.13;;;8.70;99.90;;;;;;5124649;28;20044;-83
2024/01/03 02:47:11;;;;;;;12.35;1.35;;;8.10;99.90;;;;;;5112845;28;20066;-83
2024/01/03 02:49:38;;;;;;;8.55;1.27;;;8.10;99.90;;;;;;5114693;28;20044;-83
2024/01/03 02:52:05;;;;;;;8.30;1.30;;;8.30;99.90;;;;;;5117880;28;20058;-83
2024/01/03 02:54:31;;;;;;;9.10;1.15;;;8.10;99.90;;;;;;5131181;28;20156;-83
2024/01/03 02:56:58;;;;;;;8.43;1.40;;;8.10;99.90;;;;;;5121761;28;20043;-83
2024/01/03 02:59:25;;;;;;;8.52;1.38;;;8.10;99.90;;;;;;5123256;28;20527;-83
2024/01/03 03:01:52;;;;;;;8.48;1.27;;;8.40;99.90;;;;;;5117340;28;20031;-83
2024/01/03 03:04:19;;;;;;;8.80;1.17;;;8.20;99.90;;;;;;5116177;28;20169;-83
2024/01/03 03:06:45;;;;;;;5.03;0.75;;;8.40;99.90;;;;;;5110645;28;20070;-83
2024/01/03 03:09:12;;;;;;;5.65;1.10;;;8.30;99.90;;;;;;5127592;28;20044;-84
2024/01/03 03:11:39;;;;;;;7.15;1.77;;;8.40;99.90;;;;;;5114709;28;20028;-83
2024/01/03 03:14:05;;;;;;;8.95;1.98;;;8.70;99.90;;;;;;5131086;28;20035;-83
2024/01/03 03:16:32;;;;;;;7.28;0.82;;;8.60;99.90;;;;;;5121105;28;20105;-83
2024/01/03 03:18:59;;;;;;;3.72;1.00;;;8.40;99.90;;;;;;5127755;28;20036;-84
2024/01/03 03:21:25;;;;;;;5.60;1.02;;;8.40;99.90;;;;;;5121050;28;20489;-83
2024/01/03 03:23:52;;;;;;;8.85;1.02;;;8.40;99.90;;;;;;5126847;28;20040;-83
2024/01/03 03:26:18;;;;;;;9.27;1.20;;;8.50;99.90;;;;;;5121113;28;20507;-83
2024/01/03 03:28:45;;;;;;;5.03;0.95;;;8.50;99.90;;;;;;5130719;28;20079;-83
2024/01/03 03:31:12;;;;;;;8.23;1.45;;;9.10;99.90;;;;;;5130560;28;20148;-83
2024/01/03 03:33:39;;;;;;;7.30;1.30;;;8.60;99.90;;;;;;5143308;28;20082;-83
2024/01/03 03:36:15;;;;;;;10.18;1.60;;;8.90;99.90;;;;;;5110232;28;20083;-83
2024/01/03 03:38:42;;;;;;;7.35;1.13;;;8.50;99.90;;;;;;5110176;28;20040;-83
2024/01/03 03:41:12;;;;;;;6.72;1.23;;;8.90;99.90;;;;;;5140153;28;20035;-83
2024/01/03 03:43:40;;;;;;;7.32;1.45;;;8.60;99.90;;;;;;5119670;28;20374;-83
2024/01/03 03:46:07;;;;;;;8.25;1.50;;;8.50;99.90;;;;;;5115413;28;20437;-83
2024/01/03 03:48:34;;;;;;;7.07;1.10;;;8.60;99.90;;;;;;5118380;28;20119;-83
2024/01/03 03:51:02;;;;;;;7.25;1.50;;;8.60;99.90;;;;;;5093237;28;20454;-83
2024/01/03 03:53:29;;;;;;;8.57;1.27;;;8.50;99.90;;;;;;5115370;28;20495;-83
2024/01/03 03:55:55;;;;;;;6.55;1.25;;;8.90;99.90;;;;;;5130401;28;20094;-83
2024/01/03 03:58:24;;;;;;;5.68;1.20;;;8.90;99.90;;;;;;5110761;28;20551;-83
2024/01/03 04:00:51;;;;;;;5.63;1.25;;;8.90;99.90;;;;;;5128166;28;20146;-84
2024/01/03 04:03:17;;;;;;;11.07;1.08;;;8.60;99.90;;;;;;5140623;28;20126;-83
2024/01/03 04:05:44;;;;;;;7.15;1.27;;;8.60;99.90;;;;;;5123099;28;20048;-84
2024/01/03 04:08:11;;;;;;;6.18;1.20;;;9.00;99.90;;;;;;5147194;28;20046;-84
2024/01/03 04:10:37;;;;;;;5.38;1.15;;;9.00;99.90;;;;;;5116188;28;20036;-83
2024/01/03 04:13:04;;;;;;;5.88;1.38;;;8.70;99.90;;;;;;5118003;28;20084;-83
2024/01/03 04:15:31;;;;;;;5.43;1.05;;;8.60;99.90;;;;;;5135423;28;20023;-84
2024/01/03 04:17:57;;;;;;;10.43;1.20;;;8.90;99.90;;;;;;5122047;28;20040;-83
2024/01/03 04:20:24;;;;;;;3.75;1.25;;;8.60;99.90;;;;;;5131080;28;20032;-83
2024/01/03 04:22:51;;;;;;;2.17;0.80;;;8.50;99.90;;;;;;5128828;28;20075;-83
2024/01/03 04:25:17;;;;;;;10.45;1.33;;;8.50;99.90;;;;;;5121864;28;20040;-83
2024/01/03 04:27:44;;;;;;;6.70;1.17;;;8.40;99.90;;;;;;5121901;28;20131;-83
2024/01/03 04:30:11;;;;;;;4.43;1.00;;;8.40;99.90;;;;;;5128198;28;20036;-83
2024/01/03 04:32:38;;;;;;;3.38;0.77;;;8.40;99.90;;;;;;5123276;28;20042;-84
2024/01/03 04:35:05;;;;;;;5.43;1.15;;;8.40;99.90;;;;;;5113440;28;20032;-83
2024/01/03 04:37:33;;;;;;;8.18;1.85;;;8.30;99.90;;;;;;5140766;28;20122;-84
2024/01/03 04:39:59;;;;;;;7.40;1.08;;;8.30;99.90;;;;;;5127907;28;20050;-84
2024/01/03 04:42:26;;;;;;;4.93;0.90;;;8.30;99.90;;;;;;5134149;28;20032;-84
2024/01/03 04:44:53;;;;;;;7.63;1.02;;;8.30;99.90;;;;;;5124081;28;20101;-83
2024/01/03 04:47:20;;;;;;;1.73;0.60;;;8.40;99.90;;;;;;5114453;28;20040;-84
2024/01/03 04:49:47;;;;;;;4.05;1.30;;;8.30;99.90;;;;;;5115391;28;20036;-83
2024/01/03 04:52:13;;;;;;;6.75;0.90;;;8.20;99.90;;;;;;5133353;28;20484;-83
2024/01/03 04:54:40;;;;;;;5.20;0.82;;;8.30;99.90;;;;;;5124030;28;20035;-83
2024/01/03 04:57:07;;;;;;;5.45;0.80;;;8.70;99.90;;;;;;5116577;28;20039;-83
2024/01/03 04:59:33;;;;;;;2.92;0.80;;;8.20;99.90;;;;;;5133182;28;20040;-83
2024/01/03 05:02:00;;;;;;;4.55;0.70;;;8.90;99.90;;;;;;5132907;28;20138;-83
2024/01/03 05:04:27;;;;;;;4.68;0.82;;;8.20;99.90;;;;;;5120321;28;20115;-84
2024/01/03 05:06:53;;;;;;;3.13;0.90;;;8.60;99.90;;;;;;5133287;28;20086;-83
2024/01/03 05:09:20;;;;;;;2.88;0.73;;;8.90;99.90;;;;;;5127204;28;20499;-84
2024/01/03 05:11:47;;;;;;;5.93;0.93;;;8.30;99.90;;;;;;5119960;28;20114;-83
2024/01/03 05:14:13;;;;;;;4.40;0.60;;;8.30;99.90;;;;;;5116356;28;20040;-83
2024/01/03 05:16:41;;;;;;;3.67;0.90;;;8.30;99.90;;;;;;5129488;28;20123;-84
2024/01/03 05:19:07;;;;;;;1.50;0.60;;;8.90;99.90;;;;;;5137237;28;20047;-83
2024/01/03 05:21:34;;;;;;;2.97;0.60;;;8.30;99.90;;;;;;5113028;28;20044;-83
2024/01/03 05:24:01;;;;;;;4.45;0.60;;;8.60;99.90;;;;;;5126206;28;20036;-83
2024/01/03 05:26:27;;;;;;;3.40;0.68;;;8.80;99.90;;;;;;5143113;28;20044;-83
2024/01/03 05:28:54;;;;;;;2.25;0.80;;;8.30;99.90;;;;;;5129590;28;20074;-83
2024/01/03 05:31:20;;;;;;;2.72;0.73;;;8.30;99.90;;;;;;5114160;28;20028;-83
2024/01/03 05:33:47;;;;;;;3.75;0.93;;;8.30;99.90;;;;;;5131226;28;20031;-84
2024/01/03 05:36:13;;;;;;;4.90;1.02;;;8.20;99.90;;;;;;5120416;28;20040;-83
2024/01/03 05:38:40;;;;;;;4.15;0.90;;;8.20;99.90;;;;;;5131779;28;20450;-83
2024/01/03 05:41:07;;;;;;;2.90;0.75;;;8.30;99.90;;;;;;5132760;28;20476;-83
2024/01/03 05:43:33;;;;;;;5.47;0.90;;;8.30;99.90;;;;;;5125760;28;20035;-83
2024/01/03 05:46:00;;;;;;;2.95;0.88;;;8.30;99.90;;;;;;5125584;28;20505;-83
2024/01/03 05:48:26;;;;;;;3.95;0.73;;;8.80;99.90;;;;;;5115763;28;20039;-83
2024/01/03 05:50:54;;;;;;;8.77;1.35;;;8.20;99.90;;;;;;5122123;28;20036;-83
2024/01/03 05:53:20;;;;;;;7.18;1.90;;;8.30;99.90;;;;;;5128774;28;20043;-83
2024/01/03 05:55:47;;;;;;;3.65;0.98;;;8.20;99.90;;;;;;5129117;28;20446;-83
2024/01/03 05:58:14;;;;;;;4.82;0.95;;;8.20;99.90;;;;;;5125771;28;20043;-83
2024/01/03 06:00:40;;;;;;;6.70;1.25;;;8.40;99.90;;;;;;5128232;28;20557;-83
2024/01/03 06:03:07;;;;;;;6.07;1.13;;;8.40;99.90;;;;;;5132075;28;20047;-83
2024/01/03 06:05:33;;;;;;;12.73;1.73;;;8.20;99.90;;;;;;5137029;28;20091;-83
2024/01/03 06:08:00;;;;;;;14.68;2.17;;;8.50;99.90;;;;;;5140234;28;20079;-83
2024/01/03 06:10:27;;;;;;;11.18;1.90;;;8.20;99.90;;;;;;5115870;28;20040;-83
2024/01/03 06:12:53;;;;;;;17.75;2.13;;;8.30;99.90;;;;;;5120797;28;20035;-83
2024/01/03 06:15:20;;;;;;;16.27;1.98;;;8.80;99.90;;;;;;5131701;28;20059;-83
2024/01/03 06:17:47;;;;;;;7.18;1.48;;;8.50;99.90;;;;;;5148830;28;20040;-83
2024/01/03 06:20:14;;;;;;;9.00;1.40;;;8.50;99.90;;;;;;5143619;28;20488;-83
2024/01/03 06:22:40;;;;;;;10.23;2.00;;;8.40;99.90;;;;;;5128560;28;20493;-83
2024/01/03 06:25:07;;;;;;;14.63;2.05;;;8.50;99.90;;;;;;5122571;28;20036;-83
2024/01/03 06:27:35;;;;;;;18.75;1.85;;;8.40;99.90;;;;;;5119269;28;20032;-83
2024/01/03 06:30:01;;;;;;;16.55;1.90;;;8.40;99.90;;;;;;5117857;28;20070;-83
2024/01/03 06:32:28;;;;;;;17.15;2.08;;;8.40;99.90;;;;;;5124031;28;20032;-83
2024/01/03 06:34:57;;;;;;;12.05;1.75;;;9.10;99.90;;;;;;5143377;28;20118;-83
2024/01/03 06:37:24;;;;;;;15.68;2.25;;;8.80;99.90;;;;;;5131808;28;20039;-83
2024/01/03 06:39:50;;;;;;;11.65;1.50;;;8.50;99.90;;;;;;5146275;28;20131;-83
2024/01/03 06:42:17;;;;;;;12.85;2.25;;;8.60;99.90;;;;;;5123307;28;20093;-83
2024/01/03 06:44:44;;;;;;;15.27;2.38;;;8.60;99.90;;;;;;5123571;28;20043;-83
2024/01/03 06:47:10;;;;;;;13.98;1.95;;;8.50;99.90;;;;;;5127192;28;20115;-83
2024/01/03 06:49:37;;;;;;;10.15;1.60;;;8.50;99.90;;;;;;5124549;28;20507;-83
2024/01/03 06:52:04;;;;;;;11.88;2.28;;;8.40;99.90;;;;;;5129230;28;20036;-83
2024/01/03 06:54:31;;;;;;;11.23;1.92;;;8.40;99.90;;;;;;5121401;28;20039;-83
2024/01/03 06:56:58;;;;;;;8.55;1.40;;;8.80;99.90;;;;;;5125873;28;20047;-83
2024/01/03 06:59:25;;;;;;;8.38;1.85;;;8.40;99.90;;;;;;5121834;28;20432;-83
2024/01/03 07:01:51;;;;;;;9.50;1.35;;;8.40;99.90;;;;;;5129497;28;20043;-84
2024/01/03 07:04:21;;;;;;;11.52;2.13;;;9.00;99.90;;;;;;5123504;28;20071;-83
2024/01/03 07:06:51;;;;;;;10.43;1.38;;;8.50;99.90;;;;;;5118080;28;20079;-83
2024/01/03 07:09:17;;;;;;;10.10;2.05;;;9.00;99.90;;;;;;5120748;28;20068;-83
2024/01/03 07:11:44;;;;;;;11.70;1.95;;;8.60;99.90;;;;;;5119554;28;20466;-83
2024/01/03 07:14:13;;;;;;;6.55;1.50;;;8.60;99.90;;;;;;5128578;28;20039;-83
2024/01/03 07:16:40;;;;;;;6.03;1.65;;;8.40;99.90;;;;;;5130767;28;20032;-83
2024/01/03 07:19:07;;;;;;;13.43;2.00;;;8.40;99.90;;;;;;5122566;28;20036;-83
2024/01/03 07:21:33;;;;;;;13.93;2.33;;;8.40;99.90;;;;;;5136402;28;20085;-83
2024/01/03 07:24:00;;;;;;;8.77;1.83;;;9.00;99.90;;;;;;5138758;28;20044;-83
2024/01/03 07:26:27;;;;;;;12.02;1.67;;;8.30;99.90;;;;;;5123724;28;20058;-83
2024/01/03 07:28:53;;;;;;;14.20;1.67;;;8.40;99.90;;;;;;5133735;28;20040;-83
2024/01/03 07:31:20;;;;;;;8.52;1.42;;;8.30;99.90;;;;;;5138883;28;20035;-83
2024/01/03 07:33:46;;;;;;;7.28;1.40;;;8.40;99.90;;;;;;5131037;28;20039;-83
2024/01/03 07:36:13;;;;;;;11.35;1.42;;;8.40;99.90;;;;;;5130116;28;20035;-83
2024/01/03 07:38:44;;;;;;;11.68;1.35;;;8.30;99.90;;;;;;5127668;28;20492;-83
2024/01/03 07:41:11;;;;;;;6.40;1.40;;;8.30;99.90;;;;;;5130665;28;20438;-84
2024/01/03 07:43:37;;;;;;;6.40;1.45;;;8.30;99.90;;;;;;5125988;28;20038;-84
2024/01/03 07:46:04;;;;;;;11.38;1.50;;;8.30;99.90;;;;;;5115185;28;20032;-83
2024/01/03 07:48:31;;;;;;;11.40;1.30;;;8.40;99.90;;;;;;5110929;28;20043;-84
2024/01/03 07:50:57;;;;;;;7.00;1.13;;;8.50;99.90;;;;;;5130309;28;20044;-83
2024/01/03 07:53:24;;;;;;;8.65;1.15;;;8.50;99.90;;;;;;5117100;28;20035;-83
2024/01/03 07:55:52;;;;;;;7.72;1.60;;;8.50;99.90;;;;;;5147478;28;20048;-83
2024/01/03 07:58:19;;;;;;;10.05;1.45;;;8.50;99.90;;;;;;5145478;28;20089;-83
2024/01/03 08:00:46;;;;;;;8.23;1.65;;;8.60;99.90;;;;;;5129020;28;20067;-83
2024/01/03 08:03:12;;;;;;;10.88;1.60;;;8.60;99.90;;;;;;5130114;28;20418;-83
2024/01/03 08:05:39;;;;;;;8.95;1.73;;;9.00;99.90;;;;;;5114416;28;20058;-83
2024/01/03 08:08:07;;;;;;;14.93;1.80;;;8.70;99.90;;;;;;5124358;28;20052;-84
2024/01/03 08:10:33;;;;;;;10.38;1.35;;;9.10;99.90;;;;;;5125682;28;20103;-83
2024/01/03 08:13:00;;;;;;;8.90;1.77;;;8.70;99.90;;;;;;5129677;28;20453;-82
2024/01/03 08:15:26;;;;;;;12.85;2.00;;;9.00;99.90;;;;;;5116647;28;20042;-83
2024/01/03 08:17:53;;;;;;;16.67;2.40;;;8.70;99.90;;;;;;5128948;28;20040;-83
2024/01/03 08:20:20;;;;;;;15.13;1.90;;;8.60;99.90;;;;;;5113259;28;20480;-83
2024/01/03 08:22:46;;;;;;;10.13;1.75;;;8.70;99.90;;;;;;5113355;28;20046;-83
2024/01/03 08:25:13;;;;;;;8.52;1.58;;;8.70;99.90;;;;;;5129763;28;20041;-83
2024/01/03 08:27:40;;;;;;;7.82;1.65;;;8.70;99.90;;;;;;5113814;28;20040;-82
2024/01/03 08:30:07;;;;;;;12.35;2.40;;;8.80;99.90;;;;;;5136409;28;20602;-83
2024/01/03 08:32:36;;;;;;;18.40;2.33;;;8.60;99.90;;;;;;5118327;28;20039;-82
2024/01/03 08:35:03;;;;;;;14.68;1.88;;;8.70;99.90;;;;;;5127759;28;20047;-82
2024/01/03 08:37:30;;;;;;;9.00;1.67;;;8.60;99.90;;;;;;5137587;28;20040;-83
2024/01/03 08:39:57;;;;;;;9.60;1.65;;;8.60;99.90;;;;;;5131154;28;20091;-83
2024/01/03 08:42:24;;;;;;;12.60;2.28;;;8.70;99.90;;;;;;5121028;28;20556;-82
2024/01/03 08:44:53;;;;;;;8.43;1.40;;;8.70;99.90;;;;;;5116795;28;20053;-82
2024/01/03 08:47:20;;;;;;;16.17;2.03;;;8.70;99.90;;;;;;5128808;28;20081;-83
2024/01/03 08:49:47;;;;;;;15.60;1.67;;;8.70;99.90;;;;;;5116050;28;20036;-83
2024/01/03 08:52:13;;;;;;;13.15;1.67;;;8.90;99.90;;;;;;5137565;28;20089;-82
2024/01/03 08:54:40;;;;;;;8.02;1.48;;;8.80;99.90;;;;;;5128449;28;20040;-82
2024/01/03 08:57:10;;;;;;;10.93;1.70;;;8.60;99.90;;;;;;5140481;28;20054;-82
2024/01/03 08:59:36;;;;;;;9.38;1.67;;;8.60;99.90;;;;;;5129400;28;20081;-82
2024/01/03 09:02:03;;;;;;;5.95;1.60;;;8.60;99.90;;;;;;5136799;28;20044;-84
2024/01/03 09:04:30;;;;;;;7.93;1.60;;;8.70;99.90;;;;;;5105160;28;20089;-82
2024/01/03 09:06:57;;;;;;;9.18;1.58;;;8.50;99.90;;;;;;5122847;28;20419;-82
2024/01/03 09:09:23;;;;;;;6.03;1.38;;;8.50;99.90;;;;;;5134310;28;20028;-82
2024/01/03 09:11:50;;;;;;;10.43;1.50;;;8.50;99.90;;;;;;5143345;28;20081;-82
2024/01/03 09:14:17;;;;;;;8.63;1.48;;;8.40;99.90;;;;;;5136396;28;20043;-82
2024/01/03 09:16:44;;;;;;;5.55;1.25;;;8.40;99.90;;;;;;5131436;28;20036;-83
2024/01/03 09:19:10;;;;;;;9.45;1.65;;;8.30;99.90;;;;;;5136456;28;20036;-82
2024/01/03 09:21:46;;;;;;;9.98;1.40;;;8.30;99.90;;;;;;5131536;28;20051;-82
2024/01/03 09:24:13;;;;;;;4.90;1.33;;;8.30;99.90;;;;;;5115327;28;20043;-83
2024/01/03 09:26:39;;;;;;;9.20;1.55;;;8.30;99.90;;;;;;5131902;28;20040;-83
2024/01/03 09:29:07;;;;;;;9.13;1.50;;;8.30;99.90;;;;;;5129363;28;20043;-83
2024/01/03 09:31:40;;;;;;;10.25;1.75;;;8.30;99.90;;;;;;5127385;28;20511;-83
2024/01/03 09:34:06;;;;;;;11.63;1.85;;;8.30;99.90;;;;;;5134716;28;20032;-82
2024/01/03 09:36:33;;;;;;;8.50;1.73;;;8.40;99.90;;;;;;5117607;28;20131;-82
2024/01/03 09:39:00;;;;;;;9.95;2.15;;;8.40;99.90;;;;;;5149710;28;20066;-83
2024/01/03 09:41:27;;;;;;;9.98;1.45;;;8.40;99.90;;;;;;5119667;28;20114;-82
2024/01/03 09:43:55;;;;;;;10.82;2.00;;;8.40;99.90;;;;;;5145572;28;20039;-83
2024/01/03 09:46:23;;;;;;;10.68;1.63;;;8.40;99.90;;;;;;5128396;28;20036;-83
2024/01/03 09:48:49;;;;;;;8.82;1.65;;;8.40;99.90;;;;;;5118730;28;20032;-83
2024/01/03 09:51:18;;;;;;;7.93;1.70;;;8.50;99.90;;;;;;5126145;28;20388;-82
2024/01/03 09:53:46;;;;;;;15.50;1.92;;;8.50;99.90;;;;;;5141490;28;20546;-82
2024/01/03 09:56:12;;;;;;;12.13;1.63;;;8.50;99.90;;;;;;5120507;28;20043;-83
2024/01/03 09:58:39;;;;;;;12.10;1.52;;;8.60;99.90;;;;;;5143834;28;20518;-83
2024/01/03 10:01:07;;;;;;;8.75;1.77;;;8.60;99.90;;;;;;5121847;28;20074;-83
2024/01/03 10:03:34;;;;;;;10.23;1.70;;;8.90;99.90;;;;;;5130995;28;20088;-83
2024/01/03 10:06:12;;;;;;;11.93;2.55;;;8.70;99.90;;;;;;5126199;28;20052;-83
2024/01/03 10:08:40;;;;;;;8.55;1.45;;;8.70;99.90;;;;;;5128258;28;20122;-82
2024/01/03 10:11:20;;;;;;;9.57;1.80;;;8.90;99.90;;;;;;5125601;28;20523;-82
2024/01/03 10:13:51;;;;;;;6.75;1.17;;;8.80;99.90;;;;;;5124825;28;20491;-83
2024/01/03 10:16:26;;;;;;;7.72;1.50;;;8.80;99.90;;;;;;5111907;28;20032;-83
2024/01/03 10:19:16;;;;;;;9.75;1.67;;;8.90;99.90;;;;;;5124648;28;20043;-82
2024/01/03 10:21:50;;;;;;;9.25;1.58;;;8.80;99.90;;;;;;5131910;28;20039;-83
2024/01/03 10:24:19;;;;;;;11.57;2.07;;;8.90;99.90;;;;;;5120087;28;20039;-82
2024/01/03 10:26:46;;;;;;;10.20;1.52;;;8.90;99.90;;;;;;5140472;28;20459;-82
2024/01/03 10:29:20;;;;;;;8.07;1.42;;;8.90;99.90;;;;;;5143604;28;20061;-83
2024/01/03 10:31:48;;;;;;;9.85;1.52;;;8.90;99.90;;;;;;5135302;28;20032;-82
2024/01/03 10:34:21;;;;;;;6.75;1.20;;;8.90;99.90;;;;;;5122352;28;20032;-83
2024/01/03 10:36:50;;;;;;;12.68;1.50;;;9.20;99.90;;;;;;5111678;28;20051;-83
2024/01/03 10:39:19;;;;;;;11.18;1.67;;;9.00;99.90;;;;;;5137705;28;20064;-83
2024/01/03 10:41:47;;;;;;;7.10;2.20;;;9.10;99.90;;;;;;5116065;28;20141;-83
2024/01/03 10:44:16;;;;;;;9.95;1.63;;;9.20;99.90;;;;;;5121724;28;20039;-83
2024/01/03 10:46:44;;;;;;;10.00;1.20;;;9.30;99.90;;;;;;5130747;28;20036;-82
2024/01/03 10:49:11;;;;;;;10.23;1.48;;;9.40;99.90;;;;;;5141335;28;20035;-83
2024/01/03 10:51:43;;;;;;;8.85;1.40;;;9.50;99.90;;;;;;5131170;28;20445;-82
2024/01/03 10:54:19;;;;;;;7.50;1.23;;;9.40;99.90;;;;;;5142021;28;20097;-83
2024/01/03 10:56:51;;;;;;;10.23;2.70;;;9.50;99.90;;;;;;5125592;28;20062;-82
2024/01/03 10:59:21;;;;;;;11.70;1.65;;;9.50;99.90;;;;;;5124342;28;20047;-83
2024/01/03 11:02:14;;;;;;;7.53;1.25;;;10.00;99.90;;;;;;5117862;28;20731;-84
2024/01/03 11:04:51;;;;;;;8.07;1.40;;;9.70;99.90;;;;;;5111142;28;20036;-83
2024/01/03 11:07:29;;;;;;;6.50;1.35;;;9.50;99.90;;;;;;5113716;28;20054;-84
2024/01/03 11:09:56;;;;;;;8.73;1.20;;;9.60;99.90;;;;;;5118119;28;20051;-84
2024/01/03 11:12:28;;;;;;;6.65;1.20;;;10.00;99.90;;;;;;5130977;28;20050;-84
2024/01/03 11:14:55;;;;;;;5.80;1.20;;;9.50;99.90;;;;;;5119291;28;20081;-84
2024/01/03 11:17:34;;;;;;;5.47;1.10;;;10.00;99.90;;;;;;5123005;28;20126;-83
2024/01/03 11:20:08;;;;;;;4.72;1.05;;;9.50;99.90;;;;;;5119571;28;20040;-83
2024/01/03 11:23:04;;;;;;;4.63;0.90;;;9.40;99.90;;;;;;5114843;28;20040;-83
2024/01/03 11:25:48;;;;;;;8.40;1.33;;;9.40;99.90;;;;;;5125721;28;20040;-84
2024/01/03 11:28:31;;;;;;;3.70;0.70;;;9.40;99.90;;;;;;5146538;28;20067;-83
2024/01/03 11:30:59;;;;;;;5.80;0.90;;;9.40;99.90;;;;;;5130679;28;20038;-82
2024/01/03 11:33:38;;;;;;;6.97;1.13;;;9.50;99.90;;;;;;5124363;28;20040;-83
2024/01/03 11:36:05;;;;;;;5.20;1.15;;;9.50;99.90;;;;;;5114891;28;20071;-83
2024/01/03 11:38:42;;;;;;;7.65;1.35;;;9.50;99.90;;;;;;5117527;28;20067;-83
2024/01/03 11:41:22;;;;;;;7.32;1.35;;;9.50;99.90;;;;;;5125611;28;20043;-83
2024/01/03 11:43:48;;;;;;;3.63;0.90;;;9.50;99.90;;;;;;5116475;28;20046;-83
2024/01/03 11:46:15;;;;;;;6.30;1.08;;;9.40;99.90;;;;;;5110038;28;20556;-83
2024/01/03 11:48:45;;;;;;;9.20;1.35;;;9.40;99.90;;;;;;5120404;28;20042;-84
2024/01/03 11:51:23;;;;;;;9.45;1.17;;;9.40;99.90;;;;;;5112704;28;20111;-83
2024/01/03 11:53:53;;;;;;;7.18;1.58;;;9.60;99.90;;;;;;5145129;28;20031;-83
2024/01/03 11:56:32;;;;;;;8.63;1.60;;;9.30;99.90;;;;;;5129308;28;20039;-83
2024/01/03 11:59:00;;;;;;;8.60;1.48;;;9.30;99.90;;;;;;5122502;28;20043;-84
2024/01/03 12:01:27;;;;;;;10.07;1.50;;;9.30;99.90;;;;;;5127742;28;20062;-82
2024/01/03 12:04:10;;;;;;;9.73;1.58;;;9.30;99.90;;;;;;5134824;28;20122;-82
2024/01/03 12:06:39;;;;;;;12.20;1.55;;;9.30;99.90;;;;;;5134727;28;20488;-84
2024/01/03 12:09:06;;;;;;;11.00;1.70;;;9.50;99.90;;;;;;5126175;28;20044;-83
2024/01/03 12:11:34;;;;;;;7.78;1.88;;;9.50;99.90;;;;;;5116661;28;20088;-84
2024/01/03 12:14:01;;;;;;;13.27;2.47;;;9.40;99.90;;;;;;5113236;28;20038;-84
2024/01/03 12:16:28;;;;;;;13.70;1.90;;;9.40;99.90;;;;;;5129994;28;20032;-83
2024/01/03 12:18:54;;;;;;;13.68;2.05;;;9.80;99.90;;;;;;5126159;28;20035;-84
2024/01/03 12:21:21;;;;;;;11.75;2.38;;;9.70;99.90;;;;;;5125162;28;20039;-84
2024/01/03 12:24:01;;;;;;;15.18;2.13;;;9.70;99.90;;;;;;5121513;28;20027;-83
2024/01/03 12:26:28;;;;;;;18.70;1.90;;;9.80;99.90;;;;;;5130248;28;20038;-84
2024/01/03 12:29:04;;;;;;;11.32;1.60;;;9.90;99.90;;;;;;5115725;28;20471;-84
2024/01/03 12:31:31;;;;;;;14.70;1.60;;;10.00;99.90;;;;;;5122953;28;20040;-83
2024/01/03 12:34:08;;;;;;;12.05;1.60;;;10.00;99.90;;;;;;5120689;28;20086;-84
2024/01/03 12:36:35;;;;;;;17.00;1.80;;;10.00;99.90;;;;;;5128928;28;20048;-84
2024/01/03 12:39:01;;;;;;;9.63;2.03;;;10.00;99.90;;;;;;5127160;28;20507;-83
2024/01/03 12:41:28;;;;;;;11.63;1.50;;;10.00;99.90;;;;;;5126423;28;20140;-83
2024/01/03 12:43:55;;;;;;;12.85;1.73;;;10.10;99.90;;;;;;5127060;28;20040;-84
2024/01/03 12:46:21;;;;;;;9.82;1.65;;;10.10;99.90;;;;;;5124295;28;20512;-84
2024/01/03 12:48:48;;;;;;;9.55;1.65;;;10.10;99.90;;;;;;5130434;28;20063;-83
2024/01/03 12:51:15;;;;;;;12.65;1.88;;;10.30;99.90;;;;;;5132107;28;21803;-83
2024/01/03 12:53:41;;;;;;;11.23;1.77;;;10.10;99.90;;;;;;5127761;28;20043;-84
2024/01/03 12:56:08;;;;;;;8.93;1.35;;;10.10;99.90;;;;;;5144237;28;20040;-84
2024/01/03 12:58:37;;;;;;;8.18;1.42;;;10.20;99.90;;;;;;5133824;28;20039;-84